createdAt,value
2022-08-31T00:01:50.762Z,15.29
2022-08-31T00:04:17.692Z,15.30
2022-08-31T00:06:44.378Z,15.26
2022-08-31T00:09:10.982Z,15.20
2022-08-31T00:11:38.718Z,15.24
2022-08-31T00:14:12.484Z,15.20
2022-08-31T00:16:43.497Z,15.18
2022-08-31T00:19:10.306Z,15.16
2022-08-31T00:21:39.067Z,15.19
2022-08-31T00:24:06.298Z,15.13
2022-08-31T00:26:33.149Z,15.12
2022-08-31T00:28:59.935Z,15.10
2022-08-31T00:31:26.663Z,15.09
2022-08-31T00:33:53.559Z,15.03
2022-08-31T00:36:23.811Z,15.01
2022-08-31T00:38:51.868Z,15.02
2022-08-31T00:41:22.521Z,15.01
2022-08-31T00:44:01.009Z,14.97
2022-08-31T00:46:34.102Z,14.98
2022-08-31T00:49:18.590Z,14.98
2022-08-31T00:51:58.885Z,14.94
2022-08-31T00:54:30.733Z,14.89
2022-08-31T00:56:57.838Z,14.84
2022-08-31T00:59:25.496Z,14.82
2022-08-31T01:01:52.263Z,14.81
2022-08-31T01:04:19.096Z,14.81
2022-08-31T01:06:47.380Z,14.73
2022-08-31T01:09:14.829Z,14.65
2022-08-31T01:11:42.360Z,14.62
2022-08-31T01:14:10.885Z,14.57
2022-08-31T01:16:51.864Z,14.53
2022-08-31T01:19:27.576Z,14.57
2022-08-31T01:22:15.296Z,14.52
2022-08-31T01:24:45.137Z,14.49
2022-08-31T01:27:13.765Z,14.55
2022-08-31T01:29:40.979Z,14.60
2022-08-31T01:32:08.098Z,14.53
2022-08-31T01:34:35.355Z,14.48
2022-08-31T01:37:02.503Z,14.40
2022-08-31T01:39:29.281Z,14.36
2022-08-31T01:41:56.341Z,14.29
2022-08-31T01:44:25.247Z,14.22
2022-08-31T01:46:52.309Z,14.18
2022-08-31T01:49:21.393Z,14.11
2022-08-31T01:51:51.837Z,14.06
2022-08-31T01:54:19.091Z,14.06
2022-08-31T01:56:47.586Z,13.99
2022-08-31T01:59:22.249Z,14.04
2022-08-31T02:02:09.263Z,14.05
2022-08-31T02:04:36.980Z,14.08
2022-08-31T02:07:03.767Z,14.15
2022-08-31T02:09:33.971Z,14.17
2022-08-31T02:12:00.678Z,14.18
2022-08-31T02:14:27.388Z,14.13
2022-08-31T02:16:54.157Z,14.19
2022-08-31T02:19:20.875Z,14.18
2022-08-31T02:21:47.564Z,14.22
2022-08-31T02:24:14.322Z,14.20
2022-08-31T02:26:41.243Z,14.14
2022-08-31T02:29:08.225Z,14.07
2022-08-31T02:31:35.415Z,14.05
2022-08-31T02:34:03.082Z,14.10
2022-08-31T02:36:31.534Z,14.12
2022-08-31T02:39:02.024Z,14.14
2022-08-31T02:41:29.015Z,14.19
2022-08-31T02:43:55.669Z,14.20
2022-08-31T02:46:22.436Z,14.15
2022-08-31T02:49:18.968Z,14.11
2022-08-31T02:51:46.236Z,14.05
2022-08-31T02:54:13.594Z,13.97
2022-08-31T02:56:40.911Z,13.93
2022-08-31T02:59:08.440Z,13.92
2022-08-31T03:01:37.099Z,14.01
2022-08-31T03:04:05.242Z,14.05
2022-08-31T03:06:32.594Z,14.03
2022-08-31T03:09:01.141Z,14.11
2022-08-31T03:11:28.827Z,14.16
2022-08-31T03:13:58.622Z,14.18
2022-08-31T03:16:25.897Z,14.23
2022-08-31T03:18:52.720Z,14.24
2022-08-31T03:21:19.517Z,14.13
2022-08-31T03:23:46.368Z,14.09
2022-08-31T03:26:16.278Z,14.16
2022-08-31T03:28:42.987Z,14.23
2022-08-31T03:31:31.625Z,14.29
2022-08-31T03:33:59.186Z,14.33
2022-08-31T03:36:26.100Z,14.29
2022-08-31T03:38:52.748Z,14.35
2022-08-31T03:41:22.734Z,14.41
2022-08-31T03:43:49.495Z,14.49
2022-08-31T03:46:16.980Z,14.53
2022-08-31T03:48:46.888Z,14.53
2022-08-31T03:51:15.594Z,14.53
2022-08-31T03:53:44.567Z,14.60
2022-08-31T03:56:16.914Z,14.64
2022-08-31T03:58:43.661Z,14.61
2022-08-31T04:01:15.096Z,14.61
2022-08-31T04:04:12.772Z,14.67
2022-08-31T04:06:58.354Z,14.68
2022-08-31T04:09:43.582Z,14.65
2022-08-31T04:12:40.042Z,14.62
2022-08-31T04:15:29.784Z,14.55
2022-08-31T04:18:28.636Z,14.51
2022-08-31T04:20:55.337Z,14.48
2022-08-31T04:23:24.306Z,14.41
2022-08-31T04:25:52.652Z,14.22
2022-08-31T04:28:19.456Z,14.22
2022-08-31T04:30:46.744Z,14.21
2022-08-31T04:33:16.415Z,14.13
2022-08-31T04:35:44.264Z,14.11
2022-08-31T04:38:12.104Z,14.15
2022-08-31T04:40:43.071Z,14.15
2022-08-31T04:43:10.612Z,14.15
2022-08-31T04:45:42.044Z,14.11
2022-08-31T04:48:11.359Z,14.12
2022-08-31T04:50:42.511Z,14.06
2022-08-31T04:53:10.031Z,14.12
2022-08-31T04:55:41.630Z,14.17
2022-08-31T04:58:11.802Z,14.20
2022-08-31T05:00:38.488Z,14.19
2022-08-31T05:03:41.184Z,14.29
2022-08-31T05:06:14.190Z,14.33
2022-08-31T05:08:44.779Z,14.40
2022-08-31T05:11:19.839Z,14.49
2022-08-31T05:13:50.521Z,14.57
2022-08-31T05:16:17.853Z,14.62
2022-08-31T05:18:46.318Z,14.73
2022-08-31T05:21:21.033Z,14.75
2022-08-31T05:23:48.799Z,14.81
2022-08-31T05:26:23.512Z,14.92
2022-08-31T05:28:55.265Z,15.02
2022-08-31T05:31:26.730Z,15.08
2022-08-31T05:33:56.086Z,15.04
2022-08-31T05:36:33.896Z,15.11
2022-08-31T05:39:03.944Z,15.23
2022-08-31T05:41:31.553Z,15.30
2022-08-31T05:43:58.630Z,15.34
2022-08-31T05:46:25.453Z,15.40
2022-08-31T05:48:52.117Z,15.39
2022-08-31T05:51:19.358Z,15.43
2022-08-31T05:53:46.865Z,15.52
2022-08-31T05:56:20.125Z,15.64
2022-08-31T05:58:52.811Z,15.71
2022-08-31T06:01:24.406Z,15.76
2022-08-31T06:04:02.755Z,15.83
2022-08-31T06:06:31.860Z,15.92
2022-08-31T06:08:59.073Z,16.03
2022-08-31T06:11:30.529Z,16.13
2022-08-31T06:13:59.009Z,16.20
2022-08-31T06:16:26.879Z,16.28
2022-08-31T06:18:55.575Z,16.41
2022-08-31T06:21:25.478Z,16.51
2022-08-31T06:23:54.088Z,16.62
2022-08-31T06:26:23.582Z,16.67
2022-08-31T06:28:53.509Z,16.74
2022-08-31T06:31:26.808Z,16.77
2022-08-31T06:33:55.894Z,16.79
2022-08-31T06:36:48.910Z,16.79
2022-08-31T06:39:45.097Z,16.84
2022-08-31T06:42:30.440Z,16.93
2022-08-31T06:45:05.317Z,17.01
2022-08-31T06:47:41.843Z,17.05
2022-08-31T06:50:12.250Z,17.14
2022-08-31T06:52:39.226Z,17.25
2022-08-31T06:55:17.429Z,17.31
2022-08-31T06:58:04.046Z,17.30
2022-08-31T07:01:08.423Z,17.37
2022-08-31T07:04:12.281Z,17.50
2022-08-31T07:06:42.416Z,17.54
2022-08-31T07:09:15.948Z,17.59
2022-08-31T07:11:45.707Z,17.67
2022-08-31T07:14:16.024Z,17.72
2022-08-31T07:16:44.371Z,17.84
2022-08-31T07:19:12.758Z,17.91
2022-08-31T07:21:43.607Z,17.91
2022-08-31T07:24:12.229Z,17.93
2022-08-31T07:27:02.301Z,17.93
2022-08-31T07:29:40.647Z,18.03
2022-08-31T07:32:13.479Z,18.11
2022-08-31T07:34:41.710Z,18.10
2022-08-31T07:37:56.308Z,18.19
2022-08-31T07:40:44.645Z,18.24
2022-08-31T07:43:14.109Z,18.36
2022-08-31T07:45:41.758Z,18.41
2022-08-31T07:48:09.397Z,18.52
2022-08-31T07:51:11.368Z,18.54
2022-08-31T07:54:06.904Z,18.55
2022-08-31T07:56:42.080Z,18.64
2022-08-31T07:59:11.388Z,18.77
2022-08-31T08:01:41.300Z,18.86
2022-08-31T08:04:09.568Z,18.87
2022-08-31T08:06:56.451Z,18.89
2022-08-31T08:09:49.107Z,18.90
2022-08-31T08:12:25.261Z,18.98
2022-08-31T08:15:06.609Z,18.91
2022-08-31T08:18:00.305Z,18.90
2022-08-31T08:20:37.963Z,19.02
2022-08-31T08:23:14.382Z,19.17
2022-08-31T08:26:01.188Z,19.27
2022-08-31T08:28:47.865Z,19.34
2022-08-31T08:31:17.875Z,19.48
2022-08-31T08:33:46.016Z,19.58
2022-08-31T08:36:17.056Z,19.57
2022-08-31T08:38:46.295Z,19.67
2022-08-31T08:41:20.058Z,19.73
2022-08-31T08:43:52.672Z,19.66
2022-08-31T08:46:40.243Z,19.60
2022-08-31T08:49:28.316Z,19.63
2022-08-31T08:52:03.804Z,19.74
2022-08-31T08:54:34.827Z,19.69
2022-08-31T08:57:14.052Z,19.50
2022-08-31T08:59:44.352Z,19.54
2022-08-31T09:02:17.253Z,19.54
2022-08-31T09:05:35.181Z,19.57
2022-08-31T09:09:12.062Z,19.73
2022-08-31T09:12:14.860Z,19.73
2022-08-31T09:15:41.595Z,19.70
2022-08-31T09:18:33.139Z,19.88
2022-08-31T09:21:21.810Z,19.84
2022-08-31T09:24:02.298Z,20.08
2022-08-31T09:27:20.163Z,20.34
2022-08-31T09:30:00.518Z,20.53
2022-08-31T09:32:31.476Z,20.74
2022-08-31T09:35:23.697Z,20.94
2022-08-31T09:38:02.354Z,21.01
2022-08-31T09:40:37.054Z,20.98
2022-08-31T09:43:25.809Z,21.02
2022-08-31T09:46:02.462Z,21.16
2022-08-31T09:48:56.127Z,21.26
2022-08-31T09:51:29.888Z,21.39
2022-08-31T09:54:35.305Z,21.52
2022-08-31T09:57:05.386Z,21.55
2022-08-31T09:59:44.064Z,21.53
2022-08-31T10:02:22.771Z,21.59
2022-08-31T10:04:54.362Z,21.75
2022-08-31T10:07:42.987Z,21.86
2022-08-31T10:10:28.077Z,21.76
2022-08-31T10:13:18.779Z,21.84
2022-08-31T10:16:02.438Z,21.81
2022-08-31T10:18:42.228Z,21.88
2022-08-31T10:21:21.155Z,21.93
2022-08-31T10:24:28.650Z,21.92
2022-08-31T10:27:03.063Z,21.83
2022-08-31T10:29:48.617Z,21.73
2022-08-31T10:32:36.679Z,21.72
2022-08-31T10:35:11.233Z,21.70
2022-08-31T10:37:55.064Z,21.72
2022-08-31T10:40:28.773Z,21.74
2022-08-31T10:43:11.980Z,21.84
2022-08-31T10:45:44.254Z,21.95
2022-08-31T10:48:13.183Z,21.96
2022-08-31T10:51:05.638Z,22.06
2022-08-31T10:53:54.797Z,22.20
2022-08-31T10:56:59.254Z,22.25
2022-08-31T10:59:37.065Z,22.39
2022-08-31T11:02:31.538Z,22.49
2022-08-31T11:05:29.857Z,22.42
2022-08-31T11:08:17.135Z,22.52
2022-08-31T11:11:13.033Z,22.41
2022-08-31T11:14:16.109Z,22.39
2022-08-31T11:17:14.812Z,21.93
2022-08-31T11:20:17.187Z,21.81
2022-08-31T11:23:17.801Z,21.68
2022-08-31T11:26:00.635Z,21.23
2022-08-31T11:29:00.747Z,20.91
2022-08-31T11:31:33.427Z,20.96
2022-08-31T11:34:28.824Z,21.02
2022-08-31T11:37:00.078Z,21.05
2022-08-31T11:39:37.490Z,21.33
2022-08-31T11:42:12.583Z,21.40
2022-08-31T11:44:43.363Z,21.55
2022-08-31T11:47:28.310Z,21.40
2022-08-31T11:50:03.973Z,21.49
2022-08-31T11:52:43.815Z,21.59
2022-08-31T11:55:23.128Z,21.81
2022-08-31T11:58:11.502Z,22.00
2022-08-31T12:00:58.731Z,22.18
2022-08-31T12:03:40.221Z,22.27
2022-08-31T12:06:37.216Z,22.26
2022-08-31T12:09:25.607Z,22.06
2022-08-31T12:12:06.652Z,22.17
2022-08-31T12:14:51.130Z,22.10
2022-08-31T12:17:38.257Z,22.12
2022-08-31T12:20:18.168Z,22.25
2022-08-31T12:23:35.476Z,22.25
2022-08-31T12:26:14.358Z,22.43
2022-08-31T12:29:02.649Z,22.86
2022-08-31T12:31:29.995Z,23.19
2022-08-31T12:34:12.969Z,23.49
2022-08-31T12:36:40.315Z,23.77
2022-08-31T12:39:19.644Z,23.79
2022-08-31T12:42:05.570Z,23.70
2022-08-31T12:44:50.389Z,23.49
2022-08-31T12:47:43.109Z,23.28
2022-08-31T12:50:56.404Z,23.01
2022-08-31T12:53:44.491Z,22.56
2022-08-31T12:56:20.029Z,22.29
2022-08-31T12:59:20.406Z,22.48
2022-08-31T13:01:49.514Z,22.75
2022-08-31T13:04:22.207Z,23.02
2022-08-31T13:06:50.606Z,23.23
2022-08-31T13:09:24.591Z,23.41
2022-08-31T13:11:53.823Z,23.58
2022-08-31T13:14:28.413Z,23.75
2022-08-31T13:17:05.462Z,23.76
2022-08-31T13:19:34.532Z,23.44
2022-08-31T13:22:12.115Z,23.57
2022-08-31T13:24:42.048Z,23.44
2022-08-31T13:27:28.281Z,23.24
2022-08-31T13:30:10.538Z,22.93
2022-08-31T13:32:40.899Z,22.61
2022-08-31T13:35:13.570Z,22.46
2022-08-31T13:37:53.200Z,22.22
2022-08-31T13:40:24.814Z,22.30
2022-08-31T13:42:56.858Z,22.75
2022-08-31T13:45:37.920Z,23.05
2022-08-31T13:51:00.552Z,22.76
2022-08-31T13:53:46.663Z,22.82
2022-08-31T13:56:40.806Z,23.27
2022-08-31T13:59:26.460Z,23.64
2022-08-31T14:02:30.935Z,23.88
2022-08-31T14:05:05.494Z,23.62
2022-08-31T14:07:45.834Z,23.71
2022-08-31T14:10:24.173Z,23.59
2022-08-31T14:12:59.203Z,23.42
2022-08-31T14:15:52.499Z,23.67
2022-08-31T14:18:31.754Z,23.56
2022-08-31T14:21:23.740Z,23.64
2022-08-31T14:24:01.200Z,23.91
2022-08-31T14:26:34.413Z,23.89
2022-08-31T14:29:09.917Z,23.36
2022-08-31T14:31:42.886Z,22.97
2022-08-31T14:34:30.317Z,22.85
2022-08-31T14:36:59.382Z,22.97
2022-08-31T14:39:47.707Z,23.33
2022-08-31T14:42:25.547Z,23.51
2022-08-31T14:44:57.865Z,23.14
2022-08-31T14:47:27.724Z,22.99
2022-08-31T14:49:58.730Z,22.92
2022-08-31T14:52:28.455Z,22.70
2022-08-31T14:54:59.375Z,22.11
2022-08-31T14:57:26.644Z,22.02
2022-08-31T15:00:02.272Z,21.91
2022-08-31T15:02:34.080Z,22.07
2022-08-31T15:05:06.440Z,22.14
2022-08-31T15:07:35.430Z,22.20
2022-08-31T15:10:02.594Z,22.34
2022-08-31T15:12:29.204Z,22.43
2022-08-31T15:14:59.889Z,22.32
2022-08-31T15:17:33.884Z,21.88
2022-08-31T15:20:03.584Z,21.66
2022-08-31T15:22:31.310Z,21.60
2022-08-31T15:24:58.042Z,21.79
2022-08-31T15:27:29.121Z,21.76
2022-08-31T15:30:02.496Z,21.67
2022-08-31T15:32:29.139Z,21.73
2022-08-31T15:35:01.678Z,21.93
2022-08-31T15:37:31.805Z,22.16
2022-08-31T15:40:03.521Z,22.18
2022-08-31T15:42:36.658Z,22.05
2022-08-31T15:45:03.937Z,22.05
2022-08-31T15:47:52.478Z,21.78
2022-08-31T15:50:23.287Z,21.93
2022-08-31T15:52:54.862Z,22.10
2022-08-31T15:55:26.541Z,22.01
2022-08-31T15:57:55.308Z,21.92
2022-08-31T16:00:23.808Z,22.03
2022-08-31T16:02:57.438Z,22.20
2022-08-31T16:05:28.590Z,22.48
2022-08-31T16:07:57.214Z,22.60
2022-08-31T16:10:24.487Z,22.63
2022-08-31T16:12:53.963Z,22.64
2022-08-31T16:15:24.936Z,22.72
2022-08-31T16:17:51.993Z,22.71
2022-08-31T16:20:21.056Z,22.66
2022-08-31T16:22:48.309Z,22.69
2022-08-31T16:25:16.273Z,22.75
2022-08-31T16:27:46.980Z,22.61
2022-08-31T16:30:15.873Z,22.57
2022-08-31T16:32:42.615Z,22.57
2022-08-31T16:35:17.039Z,22.65
2022-08-31T16:37:43.688Z,22.55
2022-08-31T16:40:12.669Z,22.44
2022-08-31T16:42:39.370Z,22.31
2022-08-31T16:45:06.428Z,22.17
2022-08-31T16:47:35.486Z,22.12
2022-08-31T16:50:08.648Z,22.26
2022-08-31T16:52:35.972Z,22.54
2022-08-31T16:55:02.904Z,22.75
2022-08-31T16:57:34.537Z,22.95
2022-08-31T17:00:03.318Z,23.06
2022-08-31T17:02:30.360Z,23.16
2022-08-31T17:05:00.617Z,23.70
2022-08-31T17:07:33.688Z,23.96
2022-08-31T17:10:06.727Z,23.76
2022-08-31T17:12:33.414Z,23.90
2022-08-31T17:15:01.511Z,24.08
2022-08-31T17:17:31.611Z,23.81
2022-08-31T17:20:01.968Z,23.52
2022-08-31T17:22:33.180Z,23.24
2022-08-31T17:25:02.661Z,22.87
2022-08-31T17:27:29.385Z,22.73
2022-08-31T17:29:56.173Z,22.71
2022-08-31T17:32:26.372Z,22.63
2022-08-31T17:34:54.895Z,22.60
2022-08-31T17:37:26.864Z,22.32
2022-08-31T17:39:56.434Z,22.23
2022-08-31T17:42:26.898Z,22.20
2022-08-31T17:44:54.558Z,21.98
2022-08-31T17:47:23.408Z,21.61
2022-08-31T17:49:50.941Z,21.53
2022-08-31T17:52:20.278Z,21.46
2022-08-31T17:54:48.548Z,21.18
2022-08-31T17:57:17.140Z,21.01
2022-08-31T17:59:46.549Z,20.89
2022-08-31T18:02:17.435Z,20.83
2022-08-31T18:04:44.453Z,20.86
2022-08-31T18:07:11.933Z,20.88
2022-08-31T18:09:44.121Z,20.78
2022-08-31T18:12:11.261Z,20.61
2022-08-31T18:14:41.555Z,20.50
2022-08-31T18:17:16.088Z,20.42
2022-08-31T18:19:44.603Z,20.48
2022-08-31T18:22:14.189Z,20.47
2022-08-31T18:24:41.667Z,20.50
2022-08-31T18:27:10.746Z,20.34
2022-08-31T18:29:38.479Z,20.29
2022-08-31T18:32:07.303Z,20.27
2022-08-31T18:34:39.058Z,20.27
2022-08-31T18:37:07.745Z,20.29
2022-08-31T18:39:52.918Z,20.23
2022-08-31T18:42:41.813Z,20.16
2022-08-31T18:45:15.930Z,19.90
2022-08-31T18:47:43.430Z,19.80
2022-08-31T18:50:10.461Z,19.73
2022-08-31T18:52:40.416Z,19.69
2022-08-31T18:55:15.506Z,19.66
2022-08-31T18:57:48.811Z,19.66
2022-08-31T19:00:18.990Z,19.56
2022-08-31T19:02:49.847Z,19.47
2022-08-31T19:05:16.692Z,19.41
2022-08-31T19:07:46.445Z,19.32
2022-08-31T19:10:14.221Z,19.26
2022-08-31T19:12:42.594Z,19.25
2022-08-31T19:15:13.264Z,19.10
2022-08-31T19:17:41.728Z,19.01
2022-08-31T19:20:12.899Z,18.96
2022-08-31T19:22:42.782Z,18.86
2022-08-31T19:25:12.074Z,18.80
2022-08-31T19:27:39.248Z,18.68
2022-08-31T19:30:10.336Z,18.52
2022-08-31T19:32:39.587Z,18.43
2022-08-31T19:35:08.423Z,18.38
2022-08-31T19:37:39.910Z,18.38
2022-08-31T19:40:07.259Z,18.33
2022-08-31T19:42:59.554Z,18.11
2022-08-31T19:45:24.209Z,17.97
2022-08-31T19:48:01.647Z,17.85
2022-08-31T19:50:28.310Z,17.77
2022-08-31T19:52:54.994Z,17.68
2022-08-31T19:55:21.657Z,17.63
2022-08-31T19:57:48.318Z,17.54
2022-08-31T20:00:16.072Z,17.48
2022-08-31T20:02:44.453Z,17.41
2022-08-31T20:05:11.996Z,17.35
2022-08-31T20:07:41.422Z,17.37
2022-08-31T20:10:08.930Z,17.30
2022-08-31T20:12:53.556Z,17.31
2022-08-31T20:15:23.318Z,17.25
2022-08-31T20:17:57.092Z,17.24
2022-08-31T20:20:26.871Z,17.20
2022-08-31T20:22:54.021Z,17.16
2022-08-31T20:25:26.193Z,17.17
2022-08-31T20:27:53.854Z,17.16
2022-08-31T20:30:20.573Z,17.20
2022-08-31T20:32:47.193Z,17.23
2022-08-31T20:35:14.136Z,17.28
2022-08-31T20:37:40.764Z,17.27
2022-08-31T20:40:15.862Z,17.21
2022-08-31T20:42:43.362Z,17.20
2022-08-31T20:45:10.161Z,17.22
2022-08-31T20:47:55.288Z,17.25
2022-08-31T20:50:28.206Z,17.25
2022-08-31T20:52:56.770Z,17.23
2022-08-31T20:55:23.626Z,17.15
2022-08-31T20:57:51.243Z,17.14
2022-08-31T21:00:22.759Z,17.13
2022-08-31T21:02:49.971Z,17.10
2022-08-31T21:08:11.593Z,17.04
2022-08-31T21:10:42.272Z,17.06
2022-08-31T21:13:12.610Z,17.02
2022-08-31T21:15:48.648Z,17.04
2022-08-31T21:18:17.485Z,17.04
2022-08-31T21:20:46.132Z,17.04
2022-08-31T21:23:13.342Z,17.02
2022-08-31T21:25:43.937Z,16.92
2022-08-31T21:28:17.756Z,16.88
2022-08-31T21:30:50.074Z,16.89
2022-08-31T21:33:17.515Z,16.88
2022-08-31T21:35:47.872Z,16.81
2022-08-31T21:38:14.492Z,16.77
2022-08-31T21:40:49.090Z,16.72
2022-08-31T21:43:16.036Z,16.75
2022-08-31T21:45:44.980Z,16.73
2022-08-31T21:48:11.619Z,16.69
2022-08-31T21:50:38.550Z,16.66
2022-08-31T21:53:09.579Z,16.66
2022-08-31T21:55:41.474Z,16.52
2022-08-31T21:58:15.313Z,16.52
2022-08-31T22:00:45.234Z,16.50
2022-08-31T22:03:12.844Z,16.49
2022-08-31T22:05:46.850Z,16.43
2022-08-31T22:08:17.902Z,16.42
2022-08-31T22:10:47.909Z,16.42
2022-08-31T22:13:30.948Z,16.41
2022-08-31T22:16:04.280Z,16.37
2022-08-31T22:21:35.993Z,16.31
2022-08-31T22:24:08.964Z,16.23
2022-08-31T22:26:45.030Z,16.22
2022-08-31T22:29:17.202Z,16.20
2022-08-31T22:31:44.122Z,16.16
2022-08-31T22:34:13.796Z,16.11
2022-08-31T22:36:43.063Z,16.12
2022-08-31T22:39:12.546Z,16.09
2022-08-31T22:41:43.656Z,16.07
2022-08-31T22:44:16.244Z,16.03
2022-08-31T22:46:46.572Z,15.98
2022-08-31T22:49:14.252Z,16.02
2022-08-31T22:51:44.245Z,16.01
2022-08-31T22:54:11.426Z,15.92
2022-08-31T22:56:39.362Z,15.91
2022-08-31T22:59:13.585Z,15.81
2022-08-31T23:01:47.928Z,15.73
2022-08-31T23:04:18.883Z,15.69
2022-08-31T23:06:46.884Z,15.68
2022-08-31T23:09:13.579Z,15.64
2022-08-31T23:11:40.301Z,15.64
2022-08-31T23:14:08.985Z,15.59
2022-08-31T23:16:46.581Z,15.56
2022-08-31T23:19:18.263Z,15.57
2022-08-31T23:21:52.515Z,15.57
2022-08-31T23:24:33.610Z,15.53
2022-08-31T23:27:04.162Z,15.56
2022-08-31T23:29:34.775Z,15.52
2022-08-31T23:32:01.575Z,15.46
2022-08-31T23:34:28.336Z,15.38
2022-08-31T23:36:55.621Z,15.41
2022-08-31T23:39:23.921Z,15.45
2022-08-31T23:41:53.175Z,15.56
2022-08-31T23:44:20.941Z,15.64
2022-08-31T23:46:48.600Z,15.62
2022-08-31T23:49:17.697Z,15.52
2022-08-31T23:51:44.677Z,15.46
2022-08-31T23:54:12.597Z,15.43
2022-08-31T23:56:41.844Z,15.45
2022-08-31T23:59:12.911Z,15.51
